sensor_id;sensor_type;location;lat;lon;timestamp;pressure;altitude;pressure_sealevel;temperature;humidity
32033;BME280;31720;52.638;9.216;2023-08-17T00:02:30;101759.53;;;18.36;100.00
32033;BME280;31720;52.638;9.216;2023-08-17T00:05:32;101750.91;;;18.33;100.00
32033;BME280;31720;52.638;9.216;2023-08-17T00:08:34;101747.53;;;18.31;100.00
32033;BME280;31720;52.638;9.216;2023-08-17T00:11:35;101744.75;;;18.32;100.00
32033;BME280;31720;52.638;9.216;2023-08-17T00:14:38;101748.25;;;18.33;100.00
32033;BME280;31720;52.638;9.216;2023-08-17T00:17:39;101751.44;;;18.38;100.00
32033;BME280;31720;52.638;9.216;2023-08-17T00:20:41;101745.47;;;18.34;100.00
32033;BME280;31720;52.638;9.216;2023-08-17T00:23:42;101735.06;;;18.31;100.00
32033;BME280;31720;52.638;9.216;2023-08-17T00:26:43;101729.84;;;18.30;100.00
32033;BME280;31720;52.638;9.216;2023-08-17T00:29:46;101722.16;;;18.25;100.00
32033;BME280;31720;52.638;9.216;2023-08-17T00:32:47;101723.34;;;18.21;100.00
32033;BME280;31720;52.638;9.216;2023-08-17T00:35:49;101717.16;;;18.20;100.00
32033;BME280;31720;52.638;9.216;2023-08-17T00:38:50;101717.94;;;18.22;100.00
32033;BME280;31720;52.638;9.216;2023-08-17T00:41:52;101717.81;;;18.24;100.00
32033;BME280;31720;52.638;9.216;2023-08-17T00:44:54;101715.16;;;18.24;100.00
32033;BME280;31720;52.638;9.216;2023-08-17T00:47:56;101719.75;;;18.22;100.00
32033;BME280;31720;52.638;9.216;2023-08-17T00:50:59;101712.94;;;18.18;100.00
32033;BME280;31720;52.638;9.216;2023-08-17T00:54:01;101719.22;;;18.17;100.00
32033;BME280;31720;52.638;9.216;2023-08-17T00:57:03;101720.16;;;18.16;100.00
32033;BME280;31720;52.638;9.216;2023-08-17T01:00:09;101716.56;;;18.17;100.00
32033;BME280;31720;52.638;9.216;2023-08-17T01:03:11;101719.44;;;18.14;100.00
32033;BME280;31720;52.638;9.216;2023-08-17T01:06:13;101718.78;;;18.10;100.00
32033;BME280;31720;52.638;9.216;2023-08-17T01:09:14;101720.47;;;18.11;100.00
32033;BME280;31720;52.638;9.216;2023-08-17T01:12:20;101727.72;;;18.09;100.00
32033;BME280;31720;52.638;9.216;2023-08-17T01:15:33;101722.41;;;18.09;100.00
32033;BME280;31720;52.638;9.216;2023-08-17T01:18:37;101715.28;;;18.10;100.00
32033;BME280;31720;52.638;9.216;2023-08-17T01:21:44;101717.09;;;18.09;100.00
32033;BME280;31720;52.638;9.216;2023-08-17T01:24:54;101712.16;;;18.03;100.00
32033;BME280;31720;52.638;9.216;2023-08-17T01:27:57;101712.16;;;18.03;100.00
32033;BME280;31720;52.638;9.216;2023-08-17T01:31:03;101704.19;;;18.03;100.00
32033;BME280;31720;52.638;9.216;2023-08-17T01:34:08;101705.16;;;18.02;100.00
32033;BME280;31720;52.638;9.216;2023-08-17T01:37:14;101709.63;;;18.02;100.00
32033;BME280;31720;52.638;9.216;2023-08-17T01:40:21;101708.91;;;17.99;100.00
32033;BME280;31720;52.638;9.216;2023-08-17T01:43:24;101713.25;;;18.00;100.00
32033;BME280;31720;52.638;9.216;2023-08-17T01:46:30;101710.38;;;18.04;100.00
32033;BME280;31720;52.638;9.216;2023-08-17T01:49:31;101703.34;;;18.03;100.00
32033;BME280;31720;52.638;9.216;2023-08-17T01:52:33;101705.06;;;18.04;100.00
32033;BME280;31720;52.638;9.216;2023-08-17T01:55:36;101709.50;;;18.03;100.00
32033;BME280;31720;52.638;9.216;2023-08-17T01:58:37;101703.66;;;17.98;100.00
32033;BME280;31720;52.638;9.216;2023-08-17T02:01:39;101699.19;;;17.98;100.00
32033;BME280;31720;52.638;9.216;2023-08-17T02:04:40;101702.81;;;17.97;100.00
32033;BME280;31720;52.638;9.216;2023-08-17T02:07:42;101705.28;;;18.00;100.00
32033;BME280;31720;52.638;9.216;2023-08-17T02:10:44;101702.59;;;18.00;100.00
32033;BME280;31720;52.638;9.216;2023-08-17T02:13:46;101712.50;;;17.98;100.00
32033;BME280;31720;52.638;9.216;2023-08-17T02:16:47;101707.94;;;18.00;100.00
32033;BME280;31720;52.638;9.216;2023-08-17T02:19:49;101709.41;;;18.05;100.00
32033;BME280;31720;52.638;9.216;2023-08-17T02:22:50;101701.66;;;18.02;100.00
32033;BME280;31720;52.638;9.216;2023-08-17T02:25:53;101700.91;;;17.99;100.00
32033;BME280;31720;52.638;9.216;2023-08-17T02:28:54;101705.28;;;18.00;100.00
32033;BME280;31720;52.638;9.216;2023-08-17T02:31:56;101702.59;;;18.00;100.00
32033;BME280;31720;52.638;9.216;2023-08-17T02:34:57;101695.59;;;17.99;100.00
32033;BME280;31720;52.638;9.216;2023-08-17T02:37:58;101691.13;;;18.00;100.00
32033;BME280;31720;52.638;9.216;2023-08-17T02:41:01;101689.31;;;18.00;100.00
32033;BME280;31720;52.638;9.216;2023-08-17T02:44:03;101693.13;;;17.96;100.00
32033;BME280;31720;52.638;9.216;2023-08-17T02:47:05;101687.81;;;17.96;100.00
32033;BME280;31720;52.638;9.216;2023-08-17T02:50:07;101687.69;;;17.98;100.00
32033;BME280;31720;52.638;9.216;2023-08-17T02:53:08;101695.59;;;17.99;100.00
32033;BME280;31720;52.638;9.216;2023-08-17T02:56:11;101687.69;;;17.98;100.00
32033;BME280;31720;52.638;9.216;2023-08-17T02:59:13;101683.34;;;17.97;100.00
32033;BME280;31720;52.638;9.216;2023-08-17T03:02:14;101676.34;;;17.96;100.00
32033;BME280;31720;52.638;9.216;2023-08-17T03:05:15;101679.84;;;17.96;100.00
32033;BME280;31720;52.638;9.216;2023-08-17T03:08:17;101673.47;;;17.99;100.00
32033;BME280;31720;52.638;9.216;2023-08-17T03:11:20;101672.19;;;17.92;100.00
32033;BME280;31720;52.638;9.216;2023-08-17T03:14:21;101677.69;;;17.89;100.00
32033;BME280;31720;52.638;9.216;2023-08-17T03:17:22;101672.69;;;17.84;100.00
32033;BME280;31720;52.638;9.216;2023-08-17T03:20:24;101665.28;;;17.77;100.00
32033;BME280;31720;52.638;9.216;2023-08-17T03:23:25;101667.25;;;17.73;100.00
32033;BME280;31720;52.638;9.216;2023-08-17T03:26:28;101666.91;;;17.65;100.00
32033;BME280;31720;52.638;9.216;2023-08-17T03:29:29;101670.84;;;17.59;100.00
32033;BME280;31720;52.638;9.216;2023-08-17T03:32:31;101671.16;;;17.55;100.00
32033;BME280;31720;52.638;9.216;2023-08-17T03:35:32;101668.81;;;17.50;100.00
32033;BME280;31720;52.638;9.216;2023-08-17T03:38:33;101663.91;;;17.44;100.00
32033;BME280;31720;52.638;9.216;2023-08-17T03:41:36;101662.97;;;17.45;100.00
32033;BME280;31720;52.638;9.216;2023-08-17T03:44:38;101662.13;;;17.44;100.00
32033;BME280;31720;52.638;9.216;2023-08-17T03:47:39;101652.00;;;17.37;100.00
32033;BME280;31720;52.638;9.216;2023-08-17T03:50:40;101656.66;;;17.33;100.00
32033;BME280;31720;52.638;9.216;2023-08-17T03:53:42;101652.31;;;17.32;100.00
32033;BME280;31720;52.638;9.216;2023-08-17T03:56:45;101655.28;;;17.28;100.00
32033;BME280;31720;52.638;9.216;2023-08-17T03:59:46;101646.66;;;17.24;100.00
32033;BME280;31720;52.638;9.216;2023-08-17T04:02:47;101644.13;;;17.22;100.00
32033;BME280;31720;52.638;9.216;2023-08-17T04:05:49;101644.00;;;17.24;100.00
32033;BME280;31720;52.638;9.216;2023-08-17T04:08:50;101640.28;;;17.27;100.00
32033;BME280;31720;52.638;9.216;2023-08-17T04:11:53;101640.59;;;17.22;100.00
32033;BME280;31720;52.638;9.216;2023-08-17T04:14:55;101641.66;;;17.19;100.00
32033;BME280;31720;52.638;9.216;2023-08-17T04:17:56;101643.56;;;17.17;100.00
32033;BME280;31720;52.638;9.216;2023-08-17T04:20:57;101656.75;;;17.19;100.00
32033;BME280;31720;52.638;9.216;2023-08-17T04:23:59;101652.47;;;17.16;100.00
32033;BME280;31720;52.638;9.216;2023-08-17T04:27:02;101658.75;;;17.15;100.00
32033;BME280;31720;52.638;9.216;2023-08-17T04:30:04;101660.25;;;17.19;100.00
32033;BME280;31720;52.638;9.216;2023-08-17T04:33:06;101670.69;;;17.22;100.00
32033;BME280;31720;52.638;9.216;2023-08-17T04:36:09;101665.25;;;17.24;100.00
32033;BME280;31720;52.638;9.216;2023-08-17T04:39:10;101667.25;;;17.20;100.00
32033;BME280;31720;52.638;9.216;2023-08-17T04:42:13;101669.06;;;17.20;100.00
32033;BME280;31720;52.638;9.216;2023-08-17T04:45:14;101669.19;;;17.18;100.00
32033;BME280;31720;52.638;9.216;2023-08-17T04:48:16;101671.06;;;17.16;100.00
32033;BME280;31720;52.638;9.216;2023-08-17T04:51:17;101670.44;;;17.13;100.00
32033;BME280;31720;52.638;9.216;2023-08-17T04:54:19;101677.44;;;17.14;100.00
32033;BME280;31720;52.638;9.216;2023-08-17T04:57:21;101693.09;;;17.18;100.00
32033;BME280;31720;52.638;9.216;2023-08-17T05:00:23;101682.00;;;17.12;100.00
32033;BME280;31720;52.638;9.216;2023-08-17T05:03:28;101684.56;;;17.13;100.00
32033;BME280;31720;52.638;9.216;2023-08-17T05:06:29;101689.78;;;17.15;100.00
32033;BME280;31720;52.638;9.216;2023-08-17T05:09:30;101691.47;;;17.16;100.00
32033;BME280;31720;52.638;9.216;2023-08-17T05:12:33;101699.53;;;17.14;100.00
32033;BME280;31720;52.638;9.216;2023-08-17T05:15:35;101687.88;;;17.17;100.00
32033;BME280;31720;52.638;9.216;2023-08-17T05:18:36;101692.53;;;17.13;100.00
32033;BME280;31720;52.638;9.216;2023-08-17T05:21:37;101696.16;;;17.12;100.00
32033;BME280;31720;52.638;9.216;2023-08-17T05:24:39;101696.69;;;17.17;100.00
32033;BME280;31720;52.638;9.216;2023-08-17T05:27:42;101696.78;;;17.16;100.00
32033;BME280;31720;52.638;9.216;2023-08-17T05:30:43;101696.78;;;17.16;100.00
32033;BME280;31720;52.638;9.216;2023-08-17T05:33:45;101695.09;;;17.15;100.00
32033;BME280;31720;52.638;9.216;2023-08-17T05:36:47;101693.28;;;17.15;100.00
32033;BME280;31720;52.638;9.216;2023-08-17T05:39:48;101695.09;;;17.15;100.00
32033;BME280;31720;52.638;9.216;2023-08-17T05:42:51;101698.81;;;17.12;100.00
32033;BME280;31720;52.638;9.216;2023-08-17T05:45:52;101702.09;;;17.16;100.00
32033;BME280;31720;52.638;9.216;2023-08-17T05:48:54;101698.03;;;17.10;100.00
32033;BME280;31720;52.638;9.216;2023-08-17T05:51:55;101697.09;;;17.11;100.00
32033;BME280;31720;52.638;9.216;2023-08-17T05:54:57;101710.28;;;17.13;100.00
32033;BME280;31720;52.638;9.216;2023-08-17T05:57:59;101703.25;;;17.12;100.00
32033;BME280;31720;52.638;9.216;2023-08-17T06:01:05;101706.97;;;17.09;100.00
32033;BME280;31720;52.638;9.216;2023-08-17T06:04:07;101708.78;;;17.09;100.00
32033;BME280;31720;52.638;9.216;2023-08-17T06:07:08;101704.19;;;17.11;100.00
32033;BME280;31720;52.638;9.216;2023-08-17T06:10:10;101709.44;;;17.12;100.00
32033;BME280;31720;52.638;9.216;2023-08-17T06:13:13;101705.28;;;17.21;100.00
32033;BME280;31720;52.638;9.216;2023-08-17T06:16:15;101705.59;;;17.16;100.00
32033;BME280;31720;52.638;9.216;2023-08-17T06:19:17;101708.91;;;17.20;100.00
32033;BME280;31720;52.638;9.216;2023-08-17T06:22:18;101712.53;;;17.19;100.00
32033;BME280;31720;52.638;9.216;2023-08-17T06:25:19;101717.94;;;17.17;100.00
32033;BME280;31720;52.638;9.216;2023-08-17T06:28:22;101722.50;;;17.15;100.00
32033;BME280;31720;52.638;9.216;2023-08-17T06:31:24;101716.34;;;17.15;100.00
32033;BME280;31720;52.638;9.216;2023-08-17T06:34:27;101714.63;;;17.14;100.00
32033;BME280;31720;52.638;9.216;2023-08-17T06:37:29;101717.09;;;17.17;100.00
32033;BME280;31720;52.638;9.216;2023-08-17T06:40:30;101708.16;;;17.18;100.00
32033;BME280;31720;52.638;9.216;2023-08-17T06:43:33;101716.56;;;17.24;100.00
32033;BME280;31720;52.638;9.216;2023-08-17T06:46:34;101710.72;;;17.19;100.00
32033;BME280;31720;52.638;9.216;2023-08-17T06:49:36;101706.06;;;17.23;100.00
32033;BME280;31720;52.638;9.216;2023-08-17T06:52:37;101697.97;;;17.24;100.00
32033;BME280;31720;52.638;9.216;2023-08-17T06:55:39;101700.75;;;17.23;100.00
32033;BME280;31720;52.638;9.216;2023-08-17T06:58:42;101710.31;;;17.25;100.00
32033;BME280;31720;52.638;9.216;2023-08-17T07:01:43;101713.72;;;17.28;100.00
32033;BME280;31720;52.638;9.216;2023-08-17T07:04:45;101712.88;;;17.27;100.00
32033;BME280;31720;52.638;9.216;2023-08-17T07:07:47;101717.66;;;17.22;100.00
32033;BME280;31720;52.638;9.216;2023-08-17T07:10:48;101714.56;;;17.28;100.00
32033;BME280;31720;52.638;9.216;2023-08-17T07:13:51;101721.16;;;17.22;100.00
32033;BME280;31720;52.638;9.216;2023-08-17T07:16:52;101724.53;;;17.24;100.00
32033;BME280;31720;52.638;9.216;2023-08-17T07:19:54;101717.13;;;17.30;100.00
32033;BME280;31720;52.638;9.216;2023-08-17T07:22:55;101723.41;;;17.29;100.00
32033;BME280;31720;52.638;9.216;2023-08-17T07:25:57;101730.41;;;17.30;100.00
32033;BME280;31720;52.638;9.216;2023-08-17T07:29:00;101726.91;;;17.29;100.00
32033;BME280;31720;52.638;9.216;2023-08-17T07:32:01;101729.56;;;17.29;100.00
32033;BME280;31720;52.638;9.216;2023-08-17T07:35:03;101735.41;;;17.34;100.00
32033;BME280;31720;52.638;9.216;2023-08-17T07:38:05;101730.03;;;17.36;100.00
32033;BME280;31720;52.638;9.216;2023-08-17T07:41:06;101737.22;;;17.34;100.00
32033;BME280;31720;52.638;9.216;2023-08-17T07:44:10;101730.09;;;17.34;100.00
32033;BME280;31720;52.638;9.216;2023-08-17T07:47:11;101743.38;;;17.34;100.00
32033;BME280;31720;52.638;9.216;2023-08-17T07:50:13;101748.69;;;17.34;100.00
32033;BME280;31720;52.638;9.216;2023-08-17T07:53:14;101749.56;;;17.35;100.00
32033;BME280;31720;52.638;9.216;2023-08-17T07:56:15;101752.56;;;17.43;100.00
32033;BME280;31720;52.638;9.216;2023-08-17T07:59:18;101766.91;;;17.40;100.00
32033;BME280;31720;52.638;9.216;2023-08-17T08:02:20;101762.22;;;17.31;100.00
32033;BME280;31720;52.638;9.216;2023-08-17T08:05:21;101761.91;;;17.36;100.00
32033;BME280;31720;52.638;9.216;2023-08-17T08:08:23;101764.88;;;17.31;100.00
32033;BME280;31720;52.638;9.216;2023-08-17T08:11:24;101761.34;;;17.31;100.00
32033;BME280;31720;52.638;9.216;2023-08-17T08:14:29;101756.97;;;17.30;100.00
32033;BME280;31720;52.638;9.216;2023-08-17T08:17:30;101765.59;;;17.33;100.00
32033;BME280;31720;52.638;9.216;2023-08-17T08:20:32;101780.03;;;17.29;100.00
32033;BME280;31720;52.638;9.216;2023-08-17T08:23:33;101761.34;;;17.31;100.00
32033;BME280;31720;52.638;9.216;2023-08-17T08:26:35;101768.16;;;17.35;100.00
32033;BME280;31720;52.638;9.216;2023-08-17T08:29:37;101760.94;;;17.37;100.00
32033;BME280;31720;52.638;9.216;2023-08-17T08:32:39;101762.84;;;17.35;100.00
32033;BME280;31720;52.638;9.216;2023-08-17T08:35:41;101755.94;;;17.32;100.00
32033;BME280;31720;52.638;9.216;2023-08-17T08:38:42;101762.22;;;17.31;100.00
32033;BME280;31720;52.638;9.216;2023-08-17T08:41:44;101763.91;;;17.32;100.00
32033;BME280;31720;52.638;9.216;2023-08-17T08:44:47;101767.59;;;17.30;100.00
32033;BME280;31720;52.638;9.216;2023-08-17T08:47:50;101765.72;;;17.32;100.00
32033;BME280;31720;52.638;9.216;2023-08-17T08:50:54;101756.03;;;17.31;100.00
32033;BME280;31720;52.638;9.216;2023-08-17T08:54:00;101754.31;;;17.30;100.00
32033;BME280;31720;52.638;9.216;2023-08-17T08:57:05;101754.44;;;17.28;100.00
32033;BME280;31720;52.638;9.216;2023-08-17T09:00:12;101752.63;;;17.29;100.00
32033;BME280;31720;52.638;9.216;2023-08-17T09:03:15;101750.06;;;17.27;100.00
32033;BME280;31720;52.638;9.216;2023-08-17T09:06:18;101755.38;;;17.27;100.00
32033;BME280;31720;52.638;9.216;2023-08-17T09:09:19;101750.06;;;17.27;100.00
32033;BME280;31720;52.638;9.216;2023-08-17T09:12:22;101752.06;;;17.23;100.00
32033;BME280;31720;52.638;9.216;2023-08-17T09:15:25;101767.34;;;17.20;100.00
32033;BME280;31720;52.638;9.216;2023-08-17T09:18:26;101769.94;;;17.21;100.00
32033;BME280;31720;52.638;9.216;2023-08-17T09:21:31;101763.66;;;17.22;100.00
32033;BME280;31720;52.638;9.216;2023-08-17T09:24:36;101756.84;;;17.18;100.00
32033;BME280;31720;52.638;9.216;2023-08-17T09:27:38;101756.47;;;17.10;100.00
32033;BME280;31720;52.638;9.216;2023-08-17T09:30:53;101761.41;;;17.02;100.00
32033;BME280;31720;52.638;9.216;2023-08-17T09:33:55;101763.22;;;17.02;100.00
32033;BME280;31720;52.638;9.216;2023-08-17T09:36:56;101760.09;;;17.09;100.00
32033;BME280;31720;52.638;9.216;2023-08-17T09:40:03;101758.69;;;17.04;100.00
32033;BME280;31720;52.638;9.216;2023-08-17T09:43:04;101761.13;;;17.07;100.00
32033;BME280;31720;52.638;9.216;2023-08-17T09:46:09;101762.50;;;16.99;100.00
32033;BME280;31720;52.638;9.216;2023-08-17T09:49:10;101751.88;;;16.99;100.00
32033;BME280;31720;52.638;9.216;2023-08-17T09:52:11;101758.22;;;16.97;100.00
32033;BME280;31720;52.638;9.216;2023-08-17T09:55:14;101767.03;;;16.97;100.00
32033;BME280;31720;52.638;9.216;2023-08-17T09:58:16;101762.13;;;16.91;100.00
32033;BME280;31720;52.638;9.216;2023-08-17T10:01:19;101764.47;;;16.96;100.00
32033;BME280;31720;52.638;9.216;2023-08-17T10:04:22;101764.66;;;16.93;100.00
32033;BME280;31720;52.638;9.216;2023-08-17T10:07:25;101763.16;;;16.89;100.00
32033;BME280;31720;52.638;9.216;2023-08-17T10:10:29;101762.31;;;16.88;100.00
32033;BME280;31720;52.638;9.216;2023-08-17T10:13:35;101759.66;;;16.88;100.00
32033;BME280;31720;52.638;9.216;2023-08-17T10:16:44;101744.84;;;16.84;100.00
32033;BME280;31720;52.638;9.216;2023-08-17T10:19:48;101741.28;;;16.85;100.00
32033;BME280;31720;52.638;9.216;2023-08-17T10:22:56;101746.31;;;16.90;100.00
32033;BME280;31720;52.638;9.216;2023-08-17T10:26:04;101754.16;;;16.91;100.00
32033;BME280;31720;52.638;9.216;2023-08-17T10:29:09;101752.34;;;16.92;100.00
32033;BME280;31720;52.638;9.216;2023-08-17T10:32:12;101743.44;;;16.93;100.00
32033;BME280;31720;52.638;9.216;2023-08-17T10:35:14;101748.38;;;16.99;100.00
32033;BME280;31720;52.638;9.216;2023-08-17T10:38:17;101743.97;;;16.98;100.00
32033;BME280;31720;52.638;9.216;2023-08-17T10:41:19;101745.72;;;16.99;100.00
32033;BME280;31720;52.638;9.216;2023-08-17T10:44:39;101748.06;;;17.04;100.00
32033;BME280;31720;52.638;9.216;2023-08-17T10:47:42;101750.63;;;17.05;100.00
32033;BME280;31720;52.638;9.216;2023-08-17T10:50:59;101746.03;;;17.07;100.00
32033;BME280;31720;52.638;9.216;2023-08-17T10:54:02;101752.50;;;17.03;100.00
32033;BME280;31720;52.638;9.216;2023-08-17T10:57:29;101760.75;;;16.98;100.00
32033;BME280;31720;52.638;9.216;2023-08-17T11:00:33;101753.75;;;16.97;100.00
32033;BME280;31720;52.638;9.216;2023-08-17T11:03:38;101763.22;;;17.02;100.00
32033;BME280;31720;52.638;9.216;2023-08-17T11:06:41;101765.88;;;17.02;100.00
32033;BME280;31720;52.638;9.216;2023-08-17T11:09:43;101766.59;;;16.91;100.00
32033;BME280;31720;52.638;9.216;2023-08-17T11:12:45;101773.47;;;16.93;100.00
32033;BME280;31720;52.638;9.216;2023-08-17T11:15:46;101771.59;;;16.95;100.00
32033;BME280;31720;52.638;9.216;2023-08-17T11:18:49;101776.63;;;17.00;100.00
32033;BME280;31720;52.638;9.216;2023-08-17T11:21:51;101767.88;;;16.98;100.00
32033;BME280;31720;52.638;9.216;2023-08-17T11:24:52;101776.81;;;16.97;100.00
32033;BME280;31720;52.638;9.216;2023-08-17T11:27:55;101782.59;;;16.89;100.00
32033;BME280;31720;52.638;9.216;2023-08-17T11:30:57;101782.81;;;16.86;100.00
32033;BME280;31720;52.638;9.216;2023-08-17T11:34:00;101785.47;;;16.86;100.00
32033;BME280;31720;52.638;9.216;2023-08-17T11:37:02;101788.97;;;16.87;100.00
32033;BME280;31720;52.638;9.216;2023-08-17T11:40:04;101792.94;;;16.80;100.00
32033;BME280;31720;52.638;9.216;2023-08-17T11:43:05;101787.56;;;16.81;100.00
32033;BME280;31720;52.638;9.216;2023-08-17T11:46:07;101784.78;;;16.83;100.00
32033;BME280;31720;52.638;9.216;2023-08-17T11:49:10;101789.16;;;16.84;100.00
32033;BME280;31720;52.638;9.216;2023-08-17T11:52:12;101784.06;;;16.81;100.00
32033;BME280;31720;52.638;9.216;2023-08-17T11:55:16;101787.34;;;16.84;100.00
32033;BME280;31720;52.638;9.216;2023-08-17T11:58:18;101788.19;;;16.85;100.00
32033;BME280;31720;52.638;9.216;2023-08-17T12:01:19;101793.13;;;16.91;100.00
32033;BME280;31720;52.638;9.216;2023-08-17T12:04:22;101785.16;;;16.91;100.00
32033;BME280;31720;52.638;9.216;2023-08-17T12:07:24;101785.34;;;16.88;100.00
32033;BME280;31720;52.638;9.216;2023-08-17T12:10:27;101782.81;;;16.86;100.00
32033;BME280;31720;52.638;9.216;2023-08-17T12:13:32;101781.84;;;16.87;100.00
32033;BME280;31720;52.638;9.216;2023-08-17T12:16:34;101780.41;;;16.96;100.00
32033;BME280;31720;52.638;9.216;2023-08-17T12:19:37;101781.16;;;16.98;100.00
32033;BME280;31720;52.638;9.216;2023-08-17T12:22:39;101783.91;;;16.96;100.00
32033;BME280;31720;52.638;9.216;2023-08-17T12:25:41;101782.22;;;16.95;100.00
32033;BME280;31720;52.638;9.216;2023-08-17T12:28:42;101784.75;;;16.97;100.00
32033;BME280;31720;52.638;9.216;2023-08-17T12:31:44;101782.31;;;16.80;100.00
32033;BME280;31720;52.638;9.216;2023-08-17T12:34:47;101776.38;;;16.76;100.00
32033;BME280;31720;52.638;9.216;2023-08-17T12:37:48;101782.88;;;16.85;100.00
32033;BME280;31720;52.638;9.216;2023-08-17T12:40:50;101783.84;;;16.84;100.00
32033;BME280;31720;52.638;9.216;2023-08-17T12:43:51;101781.47;;;16.79;100.00
32033;BME280;31720;52.638;9.216;2023-08-17T12:46:54;101781.41;;;16.81;100.00
32033;BME280;31720;52.638;9.216;2023-08-17T12:49:56;101784.78;;;16.83;100.00
32033;BME280;31720;52.638;9.216;2023-08-17T12:52:58;101774.34;;;16.80;100.00
32033;BME280;31720;52.638;9.216;2023-08-17T12:55:59;101777.13;;;16.78;100.00
32033;BME280;31720;52.638;9.216;2023-08-17T12:59:01;101777.56;;;16.85;100.00
32033;BME280;31720;52.638;9.216;2023-08-17T13:02:02;101774.72;;;16.88;100.00
32033;BME280;31720;52.638;9.216;2023-08-17T13:05:05;101769.13;;;16.92;100.00
32033;BME280;31720;52.638;9.216;2023-08-17T13:08:06;101776.91;;;16.95;100.00
32033;BME280;31720;52.638;9.216;2023-08-17T13:11:10;101767.88;;;16.98;100.00
32033;BME280;31720;52.638;9.216;2023-08-17T13:14:11;101766.94;;;16.99;100.00
32033;BME280;31720;52.638;9.216;2023-08-17T13:17:13;101768.53;;;17.02;100.00
32033;BME280;31720;52.638;9.216;2023-08-17T13:20:18;101766.72;;;17.02;100.00
32033;BME280;31720;52.638;9.216;2023-08-17T13:23:19;101759.84;;;16.99;100.00
32033;BME280;31720;52.638;9.216;2023-08-17T13:26:22;101766.84;;;17.01;100.00
32033;BME280;31720;52.638;9.216;2023-08-17T13:29:23;101761.41;;;17.02;100.00
32033;BME280;31720;52.638;9.216;2023-08-17T13:32:25;101770.34;;;17.01;100.00
32033;BME280;31720;52.638;9.216;2023-08-17T13:35:27;101759.06;;;16.97;100.00
32033;BME280;31720;52.638;9.216;2023-08-17T13:38:29;101761.81;;;16.96;100.00
32033;BME280;31720;52.638;9.216;2023-08-17T13:41:31;101752.25;;;16.93;100.00
32033;BME280;31720;52.638;9.216;2023-08-17T13:44:32;101750.91;;;17.01;100.00
32033;BME280;31720;52.638;9.216;2023-08-17T13:47:34;101750.91;;;17.01;100.00
32033;BME280;31720;52.638;9.216;2023-08-17T13:50:38;101758.22;;;16.97;100.00
32033;BME280;31720;52.638;9.216;2023-08-17T13:53:40;101762.78;;;16.95;100.00
32033;BME280;31720;52.638;9.216;2023-08-17T13:56:41;101757.19;;;16.99;100.00
32033;BME280;31720;52.638;9.216;2023-08-17T13:59:43;101764.38;;;16.97;100.00
32033;BME280;31720;52.638;9.216;2023-08-17T14:02:44;101755.75;;;16.94;100.00
32033;BME280;31720;52.638;9.216;2023-08-17T14:05:47;101756.63;;;16.94;100.00
32033;BME280;31720;52.638;9.216;2023-08-17T14:08:48;101754.03;;;16.93;100.00
32033;BME280;31720;52.638;9.216;2023-08-17T14:11:49;101758.22;;;16.97;100.00
32033;BME280;31720;52.638;9.216;2023-08-17T14:14:51;101757.47;;;16.95;100.00
32033;BME280;31720;52.638;9.216;2023-08-17T14:17:52;101750.34;;;16.95;100.00
32033;BME280;31720;52.638;9.216;2023-08-17T14:20:55;101746.44;;;17.01;100.00
32033;BME280;31720;52.638;9.216;2023-08-17T14:23:56;101749.84;;;17.03;100.00
32033;BME280;31720;52.638;9.216;2023-08-17T14:26:58;101743.69;;;17.03;100.00
32033;BME280;31720;52.638;9.216;2023-08-17T14:29:59;101746.56;;;16.99;100.00
32033;BME280;31720;52.638;9.216;2023-08-17T14:33:02;101756.69;;;16.93;100.00
32033;BME280;31720;52.638;9.216;2023-08-17T14:36:05;101753.59;;;16.86;100.00
32033;BME280;31720;52.638;9.216;2023-08-17T14:39:07;101745.22;;;16.92;100.00
32033;BME280;31720;52.638;9.216;2023-08-17T14:42:08;101748.00;;;16.91;100.00
32033;BME280;31720;52.638;9.216;2023-08-17T14:45:11;101755.00;;;16.92;100.00
32033;BME280;31720;52.638;9.216;2023-08-17T14:48:12;101759.06;;;16.97;100.00
32033;BME280;31720;52.638;9.216;2023-08-17T14:51:15;101749.28;;;16.98;100.00
32033;BME280;31720;52.638;9.216;2023-08-17T14:54:16;101735.94;;;16.99;100.00
32033;BME280;31720;52.638;9.216;2023-08-17T14:57:18;101739.22;;;17.03;100.00
32033;BME280;31720;52.638;9.216;2023-08-17T15:00:19;101737.22;;;17.07;100.00
32033;BME280;31720;52.638;9.216;2023-08-17T15:03:20;101738.66;;;17.12;100.00
32033;BME280;31720;52.638;9.216;2023-08-17T15:06:23;101739.81;;;17.08;100.00
32033;BME280;31720;52.638;9.216;2023-08-17T15:09:25;101732.97;;;17.04;100.00
32033;BME280;31720;52.638;9.216;2023-08-17T15:12:26;101730.50;;;17.01;100.00
32033;BME280;31720;52.638;9.216;2023-08-17T15:15:28;101731.84;;;16.94;100.00
32033;BME280;31720;52.638;9.216;2023-08-17T15:18:29;101730.81;;;16.96;100.00
32033;BME280;31720;52.638;9.216;2023-08-17T15:21:32;101730.63;;;16.99;100.00
32033;BME280;31720;52.638;9.216;2023-08-17T15:24:33;101731.66;;;16.97;100.00
32033;BME280;31720;52.638;9.216;2023-08-17T15:27:34;101740.94;;;17.04;100.00
32033;BME280;31720;52.638;9.216;2023-08-17T15:30:36;101741.56;;;17.08;100.00
32033;BME280;31720;52.638;9.216;2023-08-17T15:33:38;101737.59;;;17.15;100.00
32033;BME280;31720;52.638;9.216;2023-08-17T15:36:40;101733.34;;;17.12;100.00
32033;BME280;31720;52.638;9.216;2023-08-17T15:39:42;101735.13;;;17.12;100.00
32033;BME280;31720;52.638;9.216;2023-08-17T15:42:43;101738.06;;;17.07;100.00